Pulpca — PHMT — position and weather

sailwx.info

Track history (hours):
 
Tides and Currents Weather Stations Pressure Air Temp Water Temp Dewpoint Dewpoint Depression Visibility Wind Speed Wind Dir Waves Ship Positions

Pulpca

Last reported at 2014-Aug-27 07:17 UTC. Time now 2014-Aug-27 09:07 UTC.
Position N 53°54' E 010°47'.

Length 205 m; draft 7 m.

Type: Ship (hazmat cat A). MMSI: 245097000.

Date/timePositionNaut miles runAvg speedWind from/ knotsBaromVisibWave heightAir tempDewpointWater temp
2014-Aug-27 07:17N 53°54' E 010°47'19 4.0
2014-Aug-27 02:25N 54°07' E 011°10'1719.0
2014-Aug-27 01:33N 54°17' E 011°33'1919.2
2014-Aug-27 00:33N 54°26' E 012°02'1616.3
2014-Aug-26 23:33N 54°38' E 012°21'1918.6
2014-Aug-26 22:32N 54°48' E 012°50'1919.4
2014-Aug-26 21:33N 54°54' E 013°21'2019.6
2014-Aug-26 20:33N 55°01' E 013°52'2118.5
2014-Aug-26 19:24N 55°15' E 014°21'1619.2
2014-Aug-26 18:33N 55°27' E 014°40'2619.3
2014-Aug-26 17:13N 55°41' E 015°19'34317.1
2014-Aug-25 21:09N 59°40' E 022°59'5 6.0
2014-Aug-25 20:16N 59°45' E 023°03'5 0.6
2014-Aug-25 11:18N 59°49' E 022°57'0 0.0
2014-Aug-25 09:06N 59°49' E 022°57'0 0.0
2014-Aug-25 07:24N 59°49' E 022°57'0 0.0
2014-Aug-25 06:33N 59°49' E 022°57'0 0.0
2014-Aug-25 03:33N 59°49' E 022°57'0 0.0
2014-Aug-25 02:33N 59°49' E 022°57'0 0.0
2014-Aug-25 01:33N 59°49' E 022°57'0 0.0
2014-Aug-25 00:33N 59°49' E 022°57'0 0.0
2014-Aug-24 21:30N 59°49' E 022°57'0 0.0
2014-Aug-24 20:33N 59°49' E 022°57'4 4.2
2014-Aug-24 19:33N 59°46' E 023°02'1010.4
2014-Aug-24 18:33N 59°39' E 023°17'10 9.5
2014-Aug-24 17:33N 59°34' E 023°34'9 1.2
2014-Aug-24 10:18N 59°27' E 023°44'1722.4
2014-Aug-24 09:33N 59°38' E 023°19'1611.8
2014-Aug-24 08:14N 59°49' E 022°57'0 0.0
2014-Aug-24 03:26N 59°49' E 022°57'7 8.1
2014-Aug-24 02:33N 59°43' E 023°04'42218.4
2014-Aug-23 03:33N 54°55' E 013°33'1919.0
2014-Aug-23 02:33N 54°49' E 013°02'1818.6
2014-Aug-23 01:34N 54°41' E 012°33'1818.4
2014-Aug-23 00:33N 54°27' E 012°12'1918.5
2014-Aug-22 23:30N 54°17' E 011°43'1819.1
2014-Aug-22 22:33N 54°08' E 011°17'5 0.2
2014-Aug-22 02:24N 54°07' E 011°09'1416.6
2014-Aug-22 01:33N 54°15' E 011°29'1917.0
2014-Aug-22 00:26N 54°25' E 011°57'1314.7
2014-Aug-21 23:34N 54°33' E 012°14'1716.5
2014-Aug-21 22:34N 54°44' E 012°36'1717.0
2014-Aug-21 21:33N 54°51' E 013°02'1717.5
2014-Aug-21 20:34N 54°57' E 013°30'1717.3
2014-Aug-21 19:34N 55°04' E 013°59'2117.2
2014-Aug-21 18:22N 55°19' E 014°23'1517.3
2014-Aug-21 17:31N 55°29' E 014°41'1717.4
2014-Aug-21 16:31N 55°38' E 015°07'1717.3
2014-Aug-21 15:34N 55°46' E 015°33'1817.4
2014-Aug-21 14:31N 55°55' E 016°01'1717.2
2014-Aug-21 13:33N 56°03' E 016°27'5517.2
2014-Aug-21 10:23N 56°51' E 017°14'1518.6
2014-Aug-21 09:34N 57°06' E 017°24'1918.5
2014-Aug-21 08:34N 57°23' E 017°38'21317.7
2014-Aug-20 20:30N 59°38' E 022°53'11 0.6
2014-Aug-20 03:11N 59°49' E 022°57'5 8.4
2014-Aug-20 02:33N 59°45' E 023°03'1111.2
2014-Aug-20 01:33N 59°42' E 023°24'1211.7
2014-Aug-20 00:33N 59°43' E 023°47'7211.9
2014-Aug-19 18:28N 59°58' E 026°08'1111.7
2014-Aug-19 17:33N 60°01' E 026°29'1211.7
2014-Aug-19 16:33N 60°00' E 026°52'1310.9
2014-Aug-19 15:23N 60°04' E 027°17'8311.5
2014-Aug-19 08:14N 59°55' E 030°01'6 8.1
2014-Aug-19 07:32N 59°53' E 030°11'1 1.4
2014-Aug-19 06:33N 59°54' E 030°14'0 0.0
2014-Aug-19 05:33N 59°54' E 030°14'0 0.0
2014-Aug-19 04:33N 59°54' E 030°14'0 0.0
2014-Aug-19 03:33N 59°54' E 030°14'0 0.0
2014-Aug-19 02:33N 59°54' E 030°14'0 0.0
2014-Aug-19 01:09N 59°54' E 030°14'0 0.0
2014-Aug-19 00:33N 59°54' E 030°14'0 0.0
2014-Aug-18 23:33N 59°54' E 030°14'0 0.0
2014-Aug-18 22:32N 59°54' E 030°14'0 0.0
2014-Aug-18 21:33N 59°54' E 030°14'0 0.0
2014-Aug-18 20:33N 59°54' E 030°14'0 0.0
2014-Aug-18 19:33N 59°54' E 030°14'0 0.0
2014-Aug-18 18:33N 59°54' E 030°14'0 0.0
2014-Aug-18 17:24N 59°54' E 030°14'0 0.0
2014-Aug-18 16:32N 59°54' E 030°14'0 0.0
2014-Aug-18 15:33N 59°54' E 030°14'0 0.0
2014-Aug-18 14:33N 59°54' E 030°14'0 0.0
2014-Aug-18 13:31N 59°54' E 030°14'4 3.9
2014-Aug-18 12:33N 59°54' E 030°06'10112.6
2014-Aug-18 04:33N 59°59' E 026°46'1413.0
2014-Aug-18 03:27N 59°56' E 026°18'101 9.0
2014-Aug-17 16:15N 59°49' E 022°56'  
Track history (hours):
 
Tides and Currents Weather Stations Pressure Air Temp Water Temp Dewpoint Dewpoint Depression Visibility Wind Speed Wind Dir Waves Ship Positions

Pulpca

Last reported at 2014-Aug-27 07:17 UTC. Time now 2014-Aug-27 09:07 UTC.
Position N 53°54' E 010°47'.

Length 205 m; draft 7 m.

Type: Ship (hazmat cat A). MMSI: 245097000.

Date/timePositionNaut miles runAvg speedWind from/ knotsBaromVisibWave heightAir tempDewpointWater temp
2014-Aug-27 07:17N 53°54' E 010°47'19 4.0
2014-Aug-27 02:25N 54°07' E 011°10'1719.0
2014-Aug-27 01:33N 54°17' E 011°33'1919.2
2014-Aug-27 00:33N 54°26' E 012°02'1616.3
2014-Aug-26 23:33N 54°38' E 012°21'1918.6
2014-Aug-26 22:32N 54°48' E 012°50'1919.4
2014-Aug-26 21:33N 54°54' E 013°21'2019.6
2014-Aug-26 20:33N 55°01' E 013°52'2118.5
2014-Aug-26 19:24N 55°15' E 014°21'1619.2
2014-Aug-26 18:33N 55°27' E 014°40'2619.3
2014-Aug-26 17:13N 55°41' E 015°19'34317.1
2014-Aug-25 21:09N 59°40' E 022°59'5 6.0
2014-Aug-25 20:16N 59°45' E 023°03'5 0.6
2014-Aug-25 11:18N 59°49' E 022°57'0 0.0
2014-Aug-25 09:06N 59°49' E 022°57'0 0.0
2014-Aug-25 07:24N 59°49' E 022°57'0 0.0
2014-Aug-25 06:33N 59°49' E 022°57'0 0.0
2014-Aug-25 03:33N 59°49' E 022°57'0 0.0
2014-Aug-25 02:33N 59°49' E 022°57'0 0.0
2014-Aug-25 01:33N 59°49' E 022°57'0 0.0
2014-Aug-25 00:33N 59°49' E 022°57'0 0.0
2014-Aug-24 21:30N 59°49' E 022°57'0 0.0
2014-Aug-24 20:33N 59°49' E 022°57'4 4.2
2014-Aug-24 19:33N 59°46' E 023°02'1010.4
2014-Aug-24 18:33N 59°39' E 023°17'10 9.5
2014-Aug-24 17:33N 59°34' E 023°34'9 1.2
2014-Aug-24 10:18N 59°27' E 023°44'1722.4
2014-Aug-24 09:33N 59°38' E 023°19'1611.8
2014-Aug-24 08:14N 59°49' E 022°57'0 0.0
2014-Aug-24 03:26N 59°49' E 022°57'7 8.1
2014-Aug-24 02:33N 59°43' E 023°04'42218.4
2014-Aug-23 03:33N 54°55' E 013°33'1919.0
2014-Aug-23 02:33N 54°49' E 013°02'1818.6
2014-Aug-23 01:34N 54°41' E 012°33'1818.4
2014-Aug-23 00:33N 54°27' E 012°12'1918.5
2014-Aug-22 23:30N 54°17' E 011°43'1819.1
2014-Aug-22 22:33N 54°08' E 011°17'5 0.2
2014-Aug-22 02:24N 54°07' E 011°09'1416.6
2014-Aug-22 01:33N 54°15' E 011°29'1917.0
2014-Aug-22 00:26N 54°25' E 011°57'1314.7
2014-Aug-21 23:34N 54°33' E 012°14'1716.5
2014-Aug-21 22:34N 54°44' E 012°36'1717.0
2014-Aug-21 21:33N 54°51' E 013°02'1717.5
2014-Aug-21 20:34N 54°57' E 013°30'1717.3
2014-Aug-21 19:34N 55°04' E 013°59'2117.2
2014-Aug-21 18:22N 55°19' E 014°23'1517.3
2014-Aug-21 17:31N 55°29' E 014°41'1717.4
2014-Aug-21 16:31N 55°38' E 015°07'1717.3
2014-Aug-21 15:34N 55°46' E 015°33'1817.4
2014-Aug-21 14:31N 55°55' E 016°01'1717.2
2014-Aug-21 13:33N 56°03' E 016°27'5517.2
2014-Aug-21 10:23N 56°51' E 017°14'1518.6
2014-Aug-21 09:34N 57°06' E 017°24'1918.5
2014-Aug-21 08:34N 57°23' E 017°38'21317.7
2014-Aug-20 20:30N 59°38' E 022°53'11 0.6
2014-Aug-20 03:11N 59°49' E 022°57'5 8.4
2014-Aug-20 02:33N 59°45' E 023°03'1111.2
2014-Aug-20 01:33N 59°42' E 023°24'1211.7
2014-Aug-20 00:33N 59°43' E 023°47'7211.9
2014-Aug-19 18:28N 59°58' E 026°08'1111.7
2014-Aug-19 17:33N 60°01' E 026°29'1211.7
2014-Aug-19 16:33N 60°00' E 026°52'1310.9
2014-Aug-19 15:23N 60°04' E 027°17'8311.5
2014-Aug-19 08:14N 59°55' E 030°01'6 8.1
2014-Aug-19 07:32N 59°53' E 030°11'1 1.4
2014-Aug-19 06:33N 59°54' E 030°14'0 0.0
2014-Aug-19 05:33N 59°54' E 030°14'0 0.0
2014-Aug-19 04:33N 59°54' E 030°14'0 0.0
2014-Aug-19 03:33N 59°54' E 030°14'0 0.0
2014-Aug-19 02:33N 59°54' E 030°14'0 0.0
2014-Aug-19 01:09N 59°54' E 030°14'0 0.0
2014-Aug-19 00:33N 59°54' E 030°14'0 0.0
2014-Aug-18 23:33N 59°54' E 030°14'0 0.0
2014-Aug-18 22:32N 59°54' E 030°14'0 0.0
2014-Aug-18 21:33N 59°54' E 030°14'0 0.0
2014-Aug-18 20:33N 59°54' E 030°14'0 0.0
2014-Aug-18 19:33N 59°54' E 030°14'0 0.0
2014-Aug-18 18:33N 59°54' E 030°14'0 0.0
2014-Aug-18 17:24N 59°54' E 030°14'0 0.0
2014-Aug-18 16:32N 59°54' E 030°14'0 0.0
2014-Aug-18 15:33N 59°54' E 030°14'0 0.0
2014-Aug-18 14:33N 59°54' E 030°14'0 0.0
2014-Aug-18 13:31N 59°54' E 030°14'4 3.9
2014-Aug-18 12:33N 59°54' E 030°06'10112.6
2014-Aug-18 04:33N 59°59' E 026°46'1413.0
2014-Aug-18 03:27N 59°56' E 026°18'101 9.0
2014-Aug-17 16:15N 59°49' E 022°56'  

Dump ship's entire track history